Time;durP1;ratioP1;P1;durP2;ratioP2;P2;SDS_P1;SDS_P2;PMS_P1;PMS_P2;Temp;Humidity;BMP_temperature;BMP_pressure;BME280_temperature;BME280_humidity;BME280_pressure;Samples;Min_cycle;Max_cycle;Signal;HPM_P1;HPM_P2
2023/03/18 00:00:06;;;;;;;13.13;6.68;;;12.00;99.90;;;;;;4212860;28;20056;-82
2023/03/18 00:02:07;;;;;;;12.52;6.47;;;12.00;99.90;;;;;;4231491;28;20050;-83
2023/03/18 00:04:08;;;;;;;12.60;6.90;;;12.10;99.90;;;;;;4230971;28;20051;-83
2023/03/18 00:06:17;;;;;;;14.07;6.97;;;12.10;99.90;;;;;;4231447;28;20114;-83
2023/03/18 00:08:18;;;;;;;;;;;12.10;99.90;;;;;;4213804;28;20040;-83
2023/03/18 00:10:19;;;;;;;12.68;5.97;;;12.10;99.90;;;;;;4231069;28;19964;-83
2023/03/18 00:12:20;;;;;;;12.10;6.75;;;12.10;99.90;;;;;;4230941;28;20039;-83
2023/03/18 00:14:21;;;;;;;11.98;5.57;;;12.20;99.90;;;;;;4231033;28;20100;-83
2023/03/18 00:16:22;;;;;;;11.48;6.30;;;12.20;99.90;;;;;;4212735;28;20036;-83
2023/03/18 00:18:23;;;;;;;12.20;6.10;;;12.20;99.90;;;;;;4230799;28;20050;-83
2023/03/18 00:20:37;;;;;;;13.13;5.88;;;12.20;99.90;;;;;;4212573;28;20086;-83
2023/03/18 00:22:39;;;;;;;13.80;6.07;;;12.20;99.90;;;;;;4230863;28;20119;-83
2023/03/18 00:24:40;;;;;;;12.70;6.28;;;12.20;99.90;;;;;;4230937;28;20515;-83
2023/03/18 00:26:41;;;;;;;13.85;6.32;;;12.20;99.90;;;;;;4230461;28;20044;-83
2023/03/18 00:28:42;;;;;;;11.20;5.80;;;12.20;99.90;;;;;;4212694;28;20040;-83
2023/03/18 00:30:42;;;;;;;9.43;5.47;;;12.20;99.90;;;;;;4230887;28;20066;-83
2023/03/18 00:32:43;;;;;;;10.32;5.63;;;12.20;99.90;;;;;;4231011;28;20129;-83
2023/03/18 00:34:44;;;;;;;15.10;6.20;;;12.20;99.90;;;;;;4212736;28;20051;-83
2023/03/18 00:36:44;;;;;;;10.27;6.03;;;12.20;99.90;;;;;;4230848;28;20073;-83
2023/03/18 00:38:49;;;;;;;14.77;5.70;;;12.20;99.90;;;;;;4230351;28;20043;-83
2023/03/18 00:41:03;;;;;;;11.02;6.07;;;12.20;99.90;;;;;;4230190;28;20498;-82
2023/03/18 00:43:07;;;;;;;9.75;5.45;;;12.10;99.90;;;;;;4212617;28;20040;-83
2023/03/18 00:45:10;;;;;;;13.35;5.88;;;12.10;99.90;;;;;;4233618;28;20039;-82
2023/03/18 00:47:11;;;;;;;13.55;6.63;;;12.10;99.90;;;;;;4233924;28;20127;-82
2023/03/18 00:49:12;;;;;;;10.35;5.95;;;12.10;99.90;;;;;;4233624;28;20499;-82
2023/03/18 00:51:15;;;;;;;11.40;6.40;;;12.10;99.90;;;;;;4234059;28;20036;-82
2023/03/18 00:53:17;;;;;;;12.35;6.35;;;12.00;99.90;;;;;;4234063;28;20432;-82
2023/03/18 00:55:19;;;;;;;18.08;6.10;;;12.00;99.90;;;;;;4233969;28;20169;-82
2023/03/18 00:57:20;;;;;;;12.77;6.53;;;12.00;99.90;;;;;;4216094;28;20113;-82
2023/03/18 00:59:21;;;;;;;16.52;7.03;;;12.00;99.90;;;;;;4233613;28;20044;-82
2023/03/18 01:01:25;;;;;;;12.98;6.03;;;11.90;99.90;;;;;;4233457;28;20122;-82
2023/03/18 01:03:25;;;;;;;13.63;7.20;;;11.90;99.90;;;;;;4233933;28;20100;-82
2023/03/18 01:05:26;;;;;;;11.68;6.35;;;11.90;99.90;;;;;;4233785;28;20039;-82
2023/03/18 01:07:27;;;;;;;14.85;6.65;;;11.90;99.90;;;;;;4233811;28;20051;-83
2023/03/18 01:09:28;;;;;;;12.40;7.45;;;11.90;99.90;;;;;;4215620;28;20048;-82
2023/03/18 01:11:29;;;;;;;12.68;6.82;;;11.80;99.90;;;;;;4233250;28;20376;-82
2023/03/18 01:13:30;;;;;;;17.17;7.22;;;11.80;99.90;;;;;;4233128;28;20543;-82
2023/03/18 01:15:31;;;;;;;14.23;6.95;;;11.80;99.90;;;;;;4233892;28;20119;-82
2023/03/18 01:17:32;;;;;;;17.58;8.15;;;11.70;99.90;;;;;;4233430;28;20093;-82
2023/03/18 01:19:34;;;;;;;14.07;7.35;;;11.70;99.90;;;;;;4215756;28;20058;-82
2023/03/18 01:21:36;;;;;;;11.65;6.80;;;11.70;99.90;;;;;;4233652;28;20532;-82
2023/03/18 01:23:38;;;;;;;17.85;8.05;;;11.70;99.90;;;;;;4233637;28;20192;-82
2023/03/18 01:25:39;;;;;;;17.17;8.73;;;11.60;99.90;;;;;;4232987;28;20043;-82
2023/03/18 01:27:39;;;;;;;15.20;7.72;;;11.60;99.90;;;;;;4233782;28;20067;-82
2023/03/18 01:29:41;;;;;;;18.77;8.75;;;11.60;99.90;;;;;;4233442;28;20054;-82
2023/03/18 01:31:42;;;;;;;15.02;7.60;;;11.60;99.90;;;;;;4233048;28;20046;-83
2023/03/18 01:33:42;;;;;;;14.18;8.73;;;11.60;99.90;;;;;;4233685;28;20114;-82
2023/03/18 01:35:45;;;;;;;14.05;8.90;;;11.50;99.90;;;;;;4215299;28;20044;-82
2023/03/18 01:37:46;;;;;;;16.92;9.18;;;11.50;99.90;;;;;;4247941;27;20039;-82
2023/03/18 01:39:47;;;;;;;15.55;8.93;;;11.50;99.90;;;;;;4250342;27;20126;-82
2023/03/18 01:41:48;;;;;;;14.75;8.43;;;11.40;99.90;;;;;;4250282;27;20042;-82
2023/03/18 01:43:48;;;;;;;18.67;10.25;;;11.40;99.90;;;;;;4235374;27;20055;-82
2023/03/18 01:45:53;;;;;;;21.30;10.30;;;11.40;99.90;;;;;;4233343;28;20043;-83
2023/03/18 01:47:55;;;;;;;16.75;9.85;;;11.40;99.90;;;;;;4233117;28;20047;-84
2023/03/18 01:49:55;;;;;;;16.63;9.90;;;11.40;99.90;;;;;;4233283;28;20104;-82
2023/03/18 01:52:10;;;;;;;20.83;11.18;;;11.30;99.90;;;;;;4233245;28;20048;-84
2023/03/18 01:54:13;;;;;;;19.40;12.00;;;11.20;99.90;;;;;;4232795;28;20097;-84
2023/03/18 01:56:14;;;;;;;24.08;11.23;;;11.20;99.90;;;;;;4232143;28;20040;-84
2023/03/18 01:58:23;;;;;;;20.27;11.10;;;11.20;99.90;;;;;;4233023;28;20400;-84
2023/03/18 02:00:24;;;;;;;22.52;11.80;;;11.20;99.90;;;;;;4233344;28;20226;-82
2023/03/18 02:02:25;;;;;;;19.92;11.38;;;11.10;99.90;;;;;;4233169;28;20445;-83
2023/03/18 02:04:30;;;;;;;19.98;11.40;;;11.10;99.90;;;;;;4232376;28;20036;-82
2023/03/18 02:06:30;;;;;;;22.88;12.95;;;11.10;99.90;;;;;;4231968;28;20079;-83
2023/03/18 02:08:31;;;;;;;22.02;11.63;;;11.10;99.90;;;;;;4232801;28;20384;-82
2023/03/18 02:10:32;;;;;;;20.73;11.27;;;11.10;99.90;;;;;;4213053;28;20429;-82
2023/03/18 02:12:35;;;;;;;20.88;12.25;;;11.10;99.90;;;;;;4199272;28;20051;-82
2023/03/18 02:14:37;;;;;;;19.67;11.70;;;11.00;99.90;;;;;;4199131;28;20045;-82
2023/03/18 02:16:53;;;;;;;27.00;12.98;;;11.00;99.90;;;;;;4181373;28;20124;-82
2023/03/18 02:18:59;;;;;;;20.92;12.30;;;11.00;99.90;;;;;;4198808;28;20408;-83
2023/03/18 02:21:46;;;;;;;23.67;13.13;;;11.00;99.90;;;;;;4199108;28;20068;-82
2023/03/18 02:24:32;;;;;;;26.25;13.68;;;11.00;99.90;;;;;;4170496;28;20063;-82
2023/03/18 02:26:45;;;;;;;23.10;11.60;;;10.90;99.90;;;;;;4164011;28;20052;-83
2023/03/18 02:28:49;;;;;;;24.27;14.18;;;10.90;99.90;;;;;;4163563;28;20441;-82
2023/03/18 02:30:57;;;;;;;22.58;13.93;;;10.90;99.90;;;;;;4153596;28;20053;-82
2023/03/18 02:32:59;;;;;;;24.42;14.32;;;10.90;99.90;;;;;;4198894;28;20059;-82
2023/03/18 02:35:04;;;;;;;25.35;14.18;;;10.90;99.90;;;;;;4199070;28;20043;-82
2023/03/18 02:37:06;;;;;;;22.20;14.18;;;10.90;99.90;;;;;;4198822;28;20135;-83
2023/03/18 02:39:12;;;;;;;24.50;13.85;;;10.80;99.90;;;;;;4197274;28;20040;-82
2023/03/18 02:41:19;;;;;;;27.08;15.55;;;10.80;99.90;;;;;;4198404;28;20048;-83
2023/03/18 02:43:24;;;;;;;26.25;14.00;;;10.80;99.90;;;;;;4197573;28;20044;-82
2023/03/18 02:45:56;;;;;;;24.65;15.10;;;10.80;99.90;;;;;;4198282;28;20044;-82
2023/03/18 02:48:00;;;;;;;24.85;15.20;;;10.80;99.90;;;;;;4199012;28;20055;-82
2023/03/18 02:50:02;;;;;;;24.92;15.27;;;10.70;99.90;;;;;;4198348;28;20059;-83
2023/03/18 02:52:04;;;;;;;35.03;16.73;;;10.70;99.90;;;;;;4198629;28;20135;-82
2023/03/18 02:54:09;;;;;;;29.88;15.13;;;10.70;99.90;;;;;;4198550;28;20045;-82
2023/03/18 02:56:10;;;;;;;28.88;15.32;;;10.60;99.90;;;;;;4198538;28;20489;-82
2023/03/18 02:58:12;;;;;;;25.13;14.38;;;10.60;99.90;;;;;;4197455;28;20110;-82
2023/03/18 03:00:13;;;;;;;26.02;15.02;;;10.60;99.90;;;;;;4196955;28;20115;-82
2023/03/18 03:02:14;;;;;;;24.35;15.23;;;10.60;99.90;;;;;;4197188;28;20098;-82
2023/03/18 03:04:15;;;;;;;28.60;14.55;;;10.60;99.90;;;;;;4197966;28;20076;-82
2023/03/18 03:06:16;;;;;;;31.70;16.65;;;10.50;99.90;;;;;;4198539;28;20048;-82
2023/03/18 03:08:18;;;;;;;26.13;16.15;;;10.50;99.90;;;;;;4197163;28;20488;-82
2023/03/18 03:10:18;;;;;;;27.63;16.65;;;10.50;99.90;;;;;;4197795;28;20048;-81
2023/03/18 03:12:19;;;;;;;28.40;16.38;;;10.40;99.90;;;;;;4231668;28;20520;-82
2023/03/18 03:14:20;;;;;;;32.83;16.05;;;10.40;99.90;;;;;;4232163;28;20102;-82
2023/03/18 03:16:21;;;;;;;29.13;15.77;;;10.40;99.90;;;;;;4231484;28;20500;-82
2023/03/18 03:18:23;;;;;;;32.35;16.90;;;10.30;99.90;;;;;;4231805;28;20122;-83
2023/03/18 03:20:24;;;;;;;32.22;16.85;;;10.30;99.90;;;;;;4231774;28;20051;-82
2023/03/18 03:22:26;;;;;;;34.13;17.05;;;10.30;99.90;;;;;;4231742;28;20052;-82
2023/03/18 03:24:27;;;;;;;30.83;16.75;;;10.20;99.90;;;;;;4231691;28;20032;-82
2023/03/18 03:26:27;;;;;;;30.85;18.33;;;10.20;99.90;;;;;;4231223;28;20081;-82
2023/03/18 03:28:28;;;;;;;27.98;16.17;;;10.20;99.90;;;;;;4231403;28;20039;-82
2023/03/18 03:30:29;;;;;;;29.90;18.27;;;10.20;99.90;;;;;;4231217;28;20036;-82
2023/03/18 03:32:30;;;;;;;32.58;18.23;;;10.20;99.90;;;;;;4231456;28;20077;-82
2023/03/18 03:34:32;;;;;;;32.17;17.58;;;10.20;99.90;;;;;;4231089;28;20047;-82
2023/03/18 03:36:33;;;;;;;31.70;18.00;;;10.10;99.90;;;;;;4213379;28;20099;-82
2023/03/18 03:38:34;;;;;;;31.20;18.25;;;10.10;99.90;;;;;;4230987;28;20047;-82
2023/03/18 03:40:34;;;;;;;32.35;18.20;;;10.10;99.90;;;;;;4213299;28;20056;-82
2023/03/18 03:42:36;;;;;;;31.27;18.52;;;10.10;99.90;;;;;;4231456;28;20051;-82
2023/03/18 03:44:37;;;;;;;30.27;18.60;;;10.10;99.90;;;;;;4213474;28;20040;-82
2023/03/18 03:46:38;;;;;;;30.63;17.73;;;10.10;99.90;;;;;;4230894;28;20047;-82
2023/03/18 03:48:39;;;;;;;31.30;18.50;;;10.00;99.90;;;;;;4231153;28;20044;-82
2023/03/18 03:50:40;;;;;;;35.08;19.15;;;10.00;99.90;;;;;;4231166;28;20043;-82
2023/03/18 03:52:41;;;;;;;39.50;19.55;;;10.00;99.90;;;;;;4231121;28;20592;-82
2023/03/18 03:54:41;;;;;;;32.22;19.15;;;10.00;99.90;;;;;;4231126;28;20039;-82
2023/03/18 03:56:42;;;;;;;31.17;18.42;;;10.00;99.90;;;;;;4231032;28;20075;-82
2023/03/18 03:58:43;;;;;;;35.20;19.48;;;10.00;99.90;;;;;;4230629;28;20042;-82
2023/03/18 04:00:44;;;;;;;36.08;19.00;;;10.00;99.90;;;;;;4212692;28;20505;-82
2023/03/18 04:02:46;;;;;;;33.60;17.67;;;10.00;99.90;;;;;;4230875;28;20062;-82
2023/03/18 04:04:46;;;;;;;32.97;18.42;;;10.00;99.90;;;;;;4231133;28;20051;-82
2023/03/18 04:06:47;;;;;;;29.00;17.00;;;10.00;99.90;;;;;;4231161;28;20043;-82
2023/03/18 04:08:48;;;;;;;31.65;18.58;;;10.00;99.90;;;;;;4230413;28;20052;-82
2023/03/18 04:10:49;;;;;;;31.75;18.70;;;10.00;99.90;;;;;;4230538;28;20060;-82
2023/03/18 04:12:50;;;;;;;28.60;18.20;;;9.90;99.90;;;;;;4230947;28;20154;-82
2023/03/18 04:14:51;;;;;;;34.67;19.23;;;9.90;99.90;;;;;;4212620;28;20499;-82
2023/03/18 04:16:52;;;;;;;36.28;18.40;;;9.90;99.90;;;;;;4230414;28;20071;-82
2023/03/18 04:18:52;;;;;;;33.88;19.20;;;9.90;99.90;;;;;;4230546;28;20043;-82
2023/03/18 04:20:53;;;;;;;34.22;19.13;;;9.90;99.90;;;;;;4230903;28;20087;-82
2023/03/18 04:22:54;;;;;;;32.88;17.95;;;9.90;99.90;;;;;;4230731;28;20096;-82
2023/03/18 04:24:55;;;;;;;33.28;18.33;;;9.90;99.90;;;;;;4230809;28;20043;-82
2023/03/18 04:26:56;;;;;;;33.58;19.77;;;9.90;99.90;;;;;;4230318;28;20123;-82
2023/03/18 04:28:58;;;;;;;34.50;18.73;;;9.80;99.90;;;;;;4230408;28;20039;-82
2023/03/18 04:30:58;;;;;;;36.70;20.02;;;9.80;99.90;;;;;;4230579;28;20054;-82
2023/03/18 04:33:00;;;;;;;34.25;18.83;;;9.80;99.90;;;;;;4230736;28;20083;-82
2023/03/18 04:35:02;;;;;;;34.78;19.15;;;9.80;99.90;;;;;;4230670;28;20046;-82
2023/03/18 04:37:02;;;;;;;34.17;19.45;;;9.80;99.90;;;;;;4212294;28;20115;-82
2023/03/18 04:39:03;;;;;;;32.97;19.30;;;9.80;99.90;;;;;;4229822;28;20048;-82
2023/03/18 04:41:05;;;;;;;33.70;19.42;;;9.80;99.90;;;;;;4230622;28;20043;-82
2023/03/18 04:43:06;;;;;;;32.85;18.45;;;9.70;99.90;;;;;;4230292;28;20054;-82
2023/03/18 04:45:07;;;;;;;31.52;19.15;;;9.80;99.90;;;;;;4230300;28;20043;-82
2023/03/18 04:47:07;;;;;;;31.83;18.50;;;9.70;99.90;;;;;;4230255;28;20046;-82
2023/03/18 04:49:09;;;;;;;31.38;17.77;;;9.70;99.90;;;;;;4230522;28;20035;-82
2023/03/18 04:51:11;;;;;;;35.67;17.90;;;9.70;99.90;;;;;;4230663;28;20100;-82
2023/03/18 04:53:12;;;;;;;36.22;18.95;;;9.70;99.90;;;;;;4195210;28;20048;-84
2023/03/18 04:55:15;;;;;;;29.75;17.92;;;9.70;99.90;;;;;;4230128;28;20571;-82
2023/03/18 04:57:17;;;;;;;30.80;17.90;;;9.70;99.90;;;;;;4230485;28;20104;-82
2023/03/18 04:59:18;;;;;;;33.00;17.45;;;9.60;99.90;;;;;;4212281;28;20149;-82
2023/03/18 05:01:19;;;;;;;32.05;16.05;;;9.60;99.90;;;;;;4212542;28;20048;-82
2023/03/18 05:03:20;;;;;;;28.52;16.48;;;9.60;99.90;;;;;;4229681;28;20503;-82
2023/03/18 05:05:21;;;;;;;32.13;17.42;;;9.50;99.90;;;;;;4212398;28;20043;-82
2023/03/18 05:07:21;;;;;;;28.77;16.55;;;9.60;99.90;;;;;;4212332;28;20044;-82
2023/03/18 05:09:22;;;;;;;30.83;16.27;;;9.60;99.90;;;;;;4230237;28;20067;-82
2023/03/18 05:11:24;;;;;;;28.52;15.63;;;9.60;99.90;;;;;;4212146;28;20044;-82
2023/03/18 05:13:24;;;;;;;31.00;16.52;;;9.60;99.90;;;;;;4230107;28;20052;-82
2023/03/18 05:15:26;;;;;;;29.13;16.20;;;9.60;99.90;;;;;;4229726;28;20047;-82
2023/03/18 05:17:27;;;;;;;32.30;17.13;;;9.60;99.90;;;;;;4230152;28;20048;-82
2023/03/18 05:19:28;;;;;;;27.60;16.40;;;9.50;99.90;;;;;;4212225;28;20052;-82
2023/03/18 05:21:29;;;;;;;28.48;16.15;;;9.60;99.90;;;;;;4230196;28;20039;-82
2023/03/18 05:23:30;;;;;;;27.27;15.85;;;9.60;99.90;;;;;;4230416;28;20396;-82
2023/03/18 05:25:31;;;;;;;34.13;16.48;;;9.50;99.90;;;;;;4229944;28;20036;-82
2023/03/18 05:27:31;;;;;;;26.55;15.73;;;9.50;99.90;;;;;;4230231;28;20092;-82
2023/03/18 05:29:32;;;;;;;27.83;15.80;;;9.50;99.90;;;;;;4211952;28;20040;-82
2023/03/18 05:31:33;;;;;;;29.42;15.32;;;9.50;99.90;;;;;;4232101;28;20062;-82
2023/03/18 05:33:35;;;;;;;27.35;14.93;;;9.50;99.90;;;;;;4232947;28;20402;-82
2023/03/18 05:35:39;;;;;;;28.25;14.93;;;9.60;99.90;;;;;;4233348;28;20139;-82
2023/03/18 05:37:39;;;;;;;33.15;15.70;;;9.60;99.90;;;;;;4232889;28;20039;-82
2023/03/18 05:39:41;;;;;;;31.35;16.27;;;9.60;99.90;;;;;;4214403;28;20101;-82
2023/03/18 05:41:42;;;;;;;30.83;15.95;;;9.60;99.90;;;;;;4232659;28;20408;-82
2023/03/18 05:43:43;;;;;;;31.52;15.68;;;9.60;99.90;;;;;;4232745;28;20047;-82
2023/03/18 05:45:44;;;;;;;28.30;16.25;;;9.60;99.90;;;;;;4232249;28;20075;-83
2023/03/18 05:47:45;;;;;;;29.83;15.77;;;9.60;99.90;;;;;;4232661;28;20035;-82
2023/03/18 05:49:47;;;;;;;27.60;14.88;;;9.60;99.90;;;;;;4232658;28;20043;-82
2023/03/18 05:51:48;;;;;;;32.85;16.33;;;9.60;99.90;;;;;;4232238;28;20046;-83
2023/03/18 05:53:49;;;;;;;25.15;14.65;;;9.60;99.90;;;;;;4232396;28;20040;-83
2023/03/18 05:55:49;;;;;;;30.70;14.98;;;9.60;99.90;;;;;;4232382;28;20035;-83
2023/03/18 05:57:50;;;;;;;25.15;14.07;;;9.60;99.90;;;;;;4231822;28;20393;-83
2023/03/18 05:59:51;;;;;;;31.05;15.90;;;9.60;99.90;;;;;;4232169;28;20127;-83
2023/03/18 06:01:52;;;;;;;34.63;16.27;;;9.60;99.90;;;;;;4232600;28;20526;-83
2023/03/18 06:03:54;;;;;;;27.35;15.27;;;9.60;99.90;;;;;;4232803;28;20077;-83
2023/03/18 06:05:54;;;;;;;31.25;15.95;;;9.60;99.90;;;;;;4232833;28;20048;-83
2023/03/18 06:07:56;;;;;;;28.60;15.48;;;9.60;99.90;;;;;;4232987;28;20036;-82
2023/03/18 06:09:57;;;;;;;32.35;16.08;;;9.60;99.90;;;;;;4232158;28;20108;-82
2023/03/18 06:11:58;;;;;;;33.38;16.23;;;9.60;99.90;;;;;;4232163;28;20048;-83
2023/03/18 06:13:59;;;;;;;29.80;14.52;;;9.60;99.90;;;;;;4232390;28;20057;-83
2023/03/18 06:16:00;;;;;;;40.58;17.77;;;9.60;99.90;;;;;;4232153;28;20041;-83
2023/03/18 06:18:01;;;;;;;28.52;15.40;;;9.60;99.90;;;;;;4214389;28;20131;-83
2023/03/18 06:20:03;;;;;;;37.83;16.42;;;9.60;99.90;;;;;;4232492;28;20082;-83
2023/03/18 06:22:04;;;;;;;32.70;16.33;;;9.60;99.90;;;;;;4231898;28;20521;-83
2023/03/18 06:24:06;;;;;;;33.42;15.98;;;9.60;99.90;;;;;;4214266;28;20048;-83
2023/03/18 06:26:07;;;;;;;37.00;15.75;;;9.60;99.90;;;;;;4232680;28;20498;-83
2023/03/18 06:28:08;;;;;;;38.50;17.45;;;9.60;99.90;;;;;;4232442;28;20113;-82
2023/03/18 06:30:09;;;;;;;37.33;16.23;;;9.60;99.90;;;;;;4231917;28;20043;-83
2023/03/18 06:32:10;;;;;;;32.78;16.23;;;9.60;99.90;;;;;;4231568;28;20040;-83
2023/03/18 06:34:11;;;;;;;40.55;17.38;;;9.60;99.90;;;;;;4213947;28;20048;-82
2023/03/18 06:36:15;;;;;;;39.63;16.95;;;9.60;99.90;;;;;;4207274;28;20499;-83
2023/03/18 06:38:16;;;;;;;37.92;18.27;;;9.70;99.90;;;;;;4215236;28;20120;-83
2023/03/18 06:40:17;;;;;;;36.53;17.15;;;9.70;99.90;;;;;;4214863;28;20036;-82
2023/03/18 06:42:17;;;;;;;42.38;19.73;;;9.70;99.90;;;;;;4215075;28;20044;-82
2023/03/18 06:44:18;;;;;;;39.05;18.17;;;9.70;99.90;;;;;;4215147;28;20044;-83
2023/03/18 06:46:19;;;;;;;34.90;16.33;;;9.70;99.90;;;;;;4215290;28;20075;-83
2023/03/18 06:48:20;;;;;;;44.22;18.35;;;9.80;99.90;;;;;;4196974;28;20162;-83
2023/03/18 06:50:21;;;;;;;41.78;17.73;;;9.80;99.90;;;;;;4215347;28;20486;-83
2023/03/18 06:52:22;;;;;;;39.55;18.58;;;9.80;99.90;;;;;;4215204;28;20048;-84
2023/03/18 06:54:22;;;;;;;35.72;17.52;;;9.80;99.90;;;;;;4196970;28;20065;-84
2023/03/18 06:56:24;;;;;;;38.80;17.48;;;9.80;99.90;;;;;;4215147;28;20047;-84
2023/03/18 06:58:25;;;;;;;40.75;18.83;;;9.80;99.90;;;;;;4215122;28;20048;-84
2023/03/18 07:00:26;;;;;;;34.67;16.95;;;9.90;99.90;;;;;;4215045;28;20411;-84
2023/03/18 07:02:27;;;;;;;35.40;17.35;;;9.90;99.90;;;;;;4215216;28;20048;-84
2023/03/18 07:04:28;;;;;;;36.10;18.15;;;9.90;99.90;;;;;;4214944;28;20052;-84
2023/03/18 07:06:29;;;;;;;39.25;18.75;;;9.90;99.90;;;;;;4214816;28;20044;-84
2023/03/18 07:08:30;;;;;;;40.17;17.98;;;10.00;99.90;;;;;;4214265;28;20048;-84
2023/03/18 07:10:30;;;;;;;38.78;17.63;;;10.10;99.90;;;;;;4214497;28;20075;-83
2023/03/18 07:12:31;;;;;;;36.83;17.58;;;10.10;99.90;;;;;;4214809;28;20048;-84
2023/03/18 07:14:32;;;;;;;34.92;17.40;;;10.10;99.90;;;;;;4214784;28;20044;-83
2023/03/18 07:16:33;;;;;;;33.10;17.42;;;10.20;99.90;;;;;;4214013;28;20047;-84
2023/03/18 07:18:33;;;;;;;34.40;16.73;;;10.30;99.90;;;;;;4214702;28;20106;-84
2023/03/18 07:20:35;;;;;;;31.35;16.90;;;10.30;99.90;;;;;;4214668;28;20047;-84
2023/03/18 07:22:36;;;;;;;31.58;16.60;;;10.40;99.90;;;;;;4214384;28;20052;-84
2023/03/18 07:24:36;;;;;;;39.25;17.98;;;10.50;99.90;;;;;;4214657;28;20048;-84
2023/03/18 07:26:37;;;;;;;35.53;17.25;;;10.70;99.90;;;;;;4214397;28;20043;-84
2023/03/18 07:28:38;;;;;;;34.38;17.10;;;10.80;99.90;;;;;;4214066;28;20404;-84
2023/03/18 07:30:38;;;;;;;32.75;16.60;;;10.90;99.90;;;;;;4214509;28;20043;-84
2023/03/18 07:32:39;;;;;;;33.28;16.08;;;11.00;99.90;;;;;;4214560;28;20040;-84
2023/03/18 07:34:40;;;;;;;32.58;16.08;;;11.00;99.90;;;;;;4196258;28;20052;-84
2023/03/18 07:36:41;;;;;;;33.20;16.65;;;11.00;99.90;;;;;;4224766;28;20050;-84
2023/03/18 07:38:42;;;;;;;29.33;15.48;;;11.00;99.90;;;;;;4231005;28;20047;-84
2023/03/18 07:40:43;;;;;;;35.60;17.08;;;11.00;99.90;;;;;;4231301;28;20047;-84
2023/03/18 07:42:43;;;;;;;24.70;15.45;;;11.00;99.90;;;;;;4231246;28;20130;-84
2023/03/18 07:44:44;;;;;;;32.63;16.88;;;11.10;99.90;;;;;;4231037;28;20553;-84
2023/03/18 07:46:45;;;;;;;30.10;16.10;;;11.20;99.90;;;;;;4231169;28;20514;-84
2023/03/18 07:48:46;;;;;;;34.10;17.13;;;11.20;99.90;;;;;;4230850;28;20046;-84
2023/03/18 07:50:47;;;;;;;28.48;17.10;;;11.20;99.90;;;;;;4230729;28;20054;-84
2023/03/18 07:52:48;;;;;;;31.30;17.00;;;11.20;99.90;;;;;;4231549;28;20043;-82
2023/03/18 07:54:48;;;;;;;32.20;15.57;;;11.20;99.90;;;;;;4230540;28;20044;-82
2023/03/18 07:56:52;;;;;;;29.10;16.20;;;11.20;99.90;;;;;;4231344;28;20181;-84
2023/03/18 07:58:52;;;;;;;33.63;16.98;;;11.20;99.90;;;;;;4231262;28;20358;-83
2023/03/18 08:00:53;;;;;;;32.50;16.20;;;11.20;99.90;;;;;;4230717;28;20121;-83
2023/03/18 08:02:54;;;;;;;29.00;16.13;;;11.30;99.90;;;;;;4230370;28;20054;-83
2023/03/18 08:04:55;;;;;;;32.67;16.83;;;11.40;99.90;;;;;;4230599;28;20047;-83
2023/03/18 08:06:56;;;;;;;35.67;16.58;;;11.40;99.90;;;;;;4230947;28;20036;-83
2023/03/18 08:08:57;;;;;;;30.73;17.75;;;11.40;99.90;;;;;;4212910;28;20090;-83
2023/03/18 08:10:59;;;;;;;33.80;18.63;;;11.40;99.90;;;;;;4230686;28;20130;-82
2023/03/18 08:12:59;;;;;;;29.15;15.90;;;11.50;99.90;;;;;;4230810;28;20515;-83
2023/03/18 08:15:00;;;;;;;30.63;16.80;;;11.50;99.90;;;;;;4230675;28;20047;-83
2023/03/18 08:17:02;;;;;;;33.15;17.92;;;11.50;99.90;;;;;;4230970;28;20044;-83
2023/03/18 08:19:03;;;;;;;34.08;17.15;;;11.50;99.90;;;;;;4230797;28;20491;-83
2023/03/18 08:21:04;;;;;;;29.38;15.77;;;11.50;99.90;;;;;;4230446;28;20101;-83
2023/03/18 08:23:05;;;;;;;31.85;17.05;;;11.50;99.90;;;;;;4230669;28;20048;-83
2023/03/18 08:25:06;;;;;;;28.13;16.25;;;11.50;99.90;;;;;;4230031;28;20364;-83
2023/03/18 08:27:08;;;;;;;29.20;16.02;;;11.50;99.90;;;;;;4230816;28;20092;-83
2023/03/18 08:29:08;;;;;;;37.00;19.52;;;11.60;99.90;;;;;;4230604;28;20095;-83
2023/03/18 08:31:09;;;;;;;35.05;16.50;;;11.60;99.90;;;;;;4212284;28;20544;-83
2023/03/18 08:33:10;;;;;;;30.13;16.33;;;11.60;99.90;;;;;;4212475;28;20052;-83
2023/03/18 08:35:11;;;;;;;32.65;16.05;;;11.60;99.90;;;;;;4230241;28;20047;-83
2023/03/18 08:37:13;;;;;;;28.55;16.13;;;11.60;99.90;;;;;;4230149;28;20044;-83
2023/03/18 08:39:14;;;;;;;27.33;15.88;;;11.70;99.90;;;;;;4230714;28;20098;-82
2023/03/18 08:41:15;;;;;;;31.17;16.15;;;11.70;99.90;;;;;;4230359;28;20092;-83
2023/03/18 08:43:17;;;;;;;30.02;15.90;;;11.70;99.90;;;;;;4230002;28;20035;-82
2023/03/18 08:45:18;;;;;;;27.98;15.15;;;11.60;99.90;;;;;;4230475;28;20039;-83
2023/03/18 08:47:20;;;;;;;26.60;15.48;;;11.60;99.90;;;;;;4230322;28;20465;-83
2023/03/18 08:49:20;;;;;;;24.40;15.10;;;11.70;99.90;;;;;;4229749;28;20127;-83
2023/03/18 08:51:21;;;;;;;28.27;16.00;;;11.70;99.90;;;;;;4230433;28;20404;-83
2023/03/18 08:53:22;;;;;;;25.67;15.27;;;11.70;99.90;;;;;;4230430;28;20118;-83
2023/03/18 08:55:35;;;;;;;25.48;14.48;;;11.70;99.90;;;;;;4230316;28;20119;-83
2023/03/18 08:57:36;;;;;;;31.27;15.77;;;11.70;99.90;;;;;;4230488;28;20051;-83
2023/03/18 08:59:37;;;;;;;27.85;15.02;;;11.80;99.90;;;;;;4230302;28;20075;-82
2023/03/18 09:01:38;;;;;;;29.65;14.90;;;11.80;99.90;;;;;;4230213;28;20043;-82
2023/03/18 09:03:39;;;;;;;30.23;15.57;;;11.80;99.90;;;;;;4230230;28;20052;-83
2023/03/18 09:05:40;;;;;;;24.83;14.43;;;11.80;99.90;;;;;;4232562;28;20043;-83
2023/03/18 09:07:42;;;;;;;27.23;15.77;;;11.80;99.90;;;;;;4215684;28;20454;-83
2023/03/18 09:09:43;;;;;;;29.52;16.35;;;11.90;99.90;;;;;;4233453;28;20079;-83
2023/03/18 09:11:45;;;;;;;29.50;15.77;;;11.80;99.90;;;;;;4215193;28;20393;-83
2023/03/18 09:13:45;;;;;;;33.00;15.68;;;11.80;99.90;;;;;;4233318;28;20040;-83
2023/03/18 09:15:46;;;;;;;29.48;15.90;;;11.80;99.90;;;;;;4215444;28;20959;-83
2023/03/18 09:17:47;;;;;;;27.30;15.73;;;11.80;99.90;;;;;;4233116;28;20047;-83
2023/03/18 09:19:48;;;;;;;33.22;16.38;;;11.80;99.90;;;;;;4215411;28;20148;-83
2023/03/18 09:21:49;;;;;;;24.70;16.45;;;11.90;99.90;;;;;;4233433;28;20047;-83
2023/03/18 09:23:51;;;;;;;32.58;16.52;;;11.90;99.90;;;;;;4215249;28;20066;-82
2023/03/18 09:25:53;;;;;;;26.58;15.73;;;12.00;99.90;;;;;;4215140;28;20075;-83
2023/03/18 09:27:54;;;;;;;27.80;16.17;;;12.00;99.90;;;;;;4232786;28;20052;-83
2023/03/18 09:29:56;;;;;;;25.48;15.32;;;12.00;99.90;;;;;;4215314;28;20036;-83
2023/03/18 09:31:57;;;;;;;27.77;17.23;;;12.10;99.90;;;;;;4215201;28;20044;-83
2023/03/18 09:33:58;;;;;;;38.90;16.80;;;12.10;99.90;;;;;;4233163;28;20101;-83
2023/03/18 09:36:00;;;;;;;25.60;15.88;;;12.20;99.90;;;;;;4232995;28;20039;-83
2023/03/18 09:38:01;;;;;;;26.67;16.52;;;12.30;99.90;;;;;;4233000;28;20085;-83
2023/03/18 09:40:02;;;;;;;28.13;15.90;;;12.40;99.90;;;;;;4233216;28;20479;-83
2023/03/18 09:42:11;;;;;;;28.10;16.27;;;12.50;99.90;;;;;;4232562;28;20047;-83
2023/03/18 09:44:14;;;;;;;26.67;15.63;;;12.60;99.90;;;;;;4233299;28;20048;-83
2023/03/18 09:46:36;;;;;;;29.27;16.83;;;12.60;99.90;;;;;;4233028;28;20062;-83
2023/03/18 09:48:50;;;;;;;31.58;15.90;;;12.70;99.90;;;;;;4232850;28;20086;-83
2023/03/18 09:50:52;;;;;;;26.30;15.98;;;12.70;99.90;;;;;;4214762;28;20048;-83
2023/03/18 09:53:34;;;;;;;26.73;15.65;;;12.70;99.90;;;;;;4215094;28;20055;-83
2023/03/18 09:55:49;;;;;;;31.70;15.77;;;12.70;99.90;;;;;;4218690;28;20070;-83
2023/03/18 09:57:56;;;;;;;26.80;15.98;;;12.70;99.90;;;;;;4232989;28;20044;-83
2023/03/18 10:00:21;;;;;;;25.23;15.55;;;12.80;99.90;;;;;;4232829;28;20043;-83
2023/03/18 10:02:45;;;;;;;26.58;15.27;;;13.70;99.90;;;;;;4232803;28;20123;-83
2023/03/18 10:04:52;;;;;;;29.20;14.82;;;13.50;99.90;;;;;;4214653;28;20044;-83
2023/03/18 10:06:58;;;;;;;30.85;15.23;;;13.90;99.90;;;;;;4232808;28;20047;-83
2023/03/18 10:09:05;;;;;;;23.15;13.90;;;14.60;99.90;;;;;;4232813;28;20428;-83
2023/03/18 10:11:16;;;;;;;25.08;15.02;;;14.90;99.90;;;;;;4232188;28;20470;-83
2023/03/18 10:13:30;;;;;;;26.02;13.70;;;14.90;99.90;;;;;;4233070;28;20197;-83
2023/03/18 10:15:41;;;;;;;22.73;13.90;;;14.90;99.90;;;;;;4232725;28;20073;-83
2023/03/18 10:17:50;;;;;;;27.05;14.70;;;14.70;99.90;;;;;;4213869;28;20051;-83
2023/03/18 10:19:54;;;;;;;26.70;14.27;;;14.80;99.90;;;;;;4232968;28;20039;-83
2023/03/18 10:22:01;;;;;;;26.50;13.43;;;14.90;99.90;;;;;;4232032;28;20085;-83
2023/03/18 10:24:18;;;;;;;24.95;14.18;;;15.40;99.90;;;;;;4214282;28;20059;-83